createdAt,value
2018-07-25T00:02:23.295Z,16.40
2018-07-25T00:04:51.512Z,16.30
2018-07-25T00:07:19.712Z,16.30
2018-07-25T00:09:47.956Z,16.20
2018-07-25T00:12:16.188Z,16.30
2018-07-25T00:14:44.528Z,16.30
2018-07-25T00:17:12.712Z,16.20
2018-07-25T00:19:40.944Z,16.30
2018-07-25T00:22:09.188Z,16.20
2018-07-25T00:24:37.685Z,16.30
2018-07-25T00:27:05.905Z,16.20
2018-07-25T00:29:34.131Z,16.20
2018-07-25T00:34:30.314Z,16.20
2018-07-25T00:36:58.596Z,16.30
2018-07-25T00:41:54.740Z,16.50
2018-07-25T00:44:22.960Z,16.50
2018-07-25T00:46:51.250Z,16.60
2018-07-25T00:49:19.442Z,16.60
2018-07-25T00:51:47.655Z,16.70
2018-07-25T00:54:15.899Z,16.70
2018-07-25T00:56:44.108Z,16.70
2018-07-25T00:59:12.335Z,16.70
2018-07-25T01:01:40.552Z,16.60
2018-07-25T01:04:08.784Z,16.60
2018-07-25T01:06:37.011Z,16.50
2018-07-25T01:09:07.631Z,16.50
2018-07-25T01:11:35.868Z,16.40
2018-07-25T01:14:04.076Z,16.40
2018-07-25T01:16:32.264Z,16.40
2018-07-25T01:19:01.122Z,16.30
2018-07-25T01:21:29.452Z,16.30
2018-07-25T01:26:25.606Z,16.30
2018-07-25T01:28:53.860Z,16.20
2018-07-25T01:31:22.088Z,16.20
2018-07-25T01:33:50.287Z,16.20
2018-07-25T01:36:18.519Z,16.20
2018-07-25T01:38:46.750Z,16.20
2018-07-25T01:41:14.968Z,16.30
2018-07-25T01:43:43.184Z,16.30
2018-07-25T01:46:11.402Z,16.40
2018-07-25T01:51:07.588Z,16.30
2018-07-25T01:53:35.788Z,16.30
2018-07-25T01:56:04.000Z,16.20
2018-07-25T01:58:32.243Z,16.20
2018-07-25T02:01:00.481Z,16.10
2018-07-25T02:03:28.635Z,16.10
2018-07-25T02:05:56.940Z,16.00
2018-07-25T02:08:25.151Z,16.00
2018-07-25T02:10:53.384Z,15.90
2018-07-25T02:20:45.513Z,15.80
2018-07-25T02:23:13.747Z,15.80
2018-07-25T02:25:41.979Z,15.70
2018-07-25T02:28:10.209Z,15.70
2018-07-25T02:30:38.409Z,15.70
2018-07-25T02:33:06.800Z,15.60
2018-07-25T02:35:35.004Z,15.60
2018-07-25T02:38:03.231Z,15.60
2018-07-25T02:40:31.444Z,15.60
2018-07-25T02:42:59.764Z,15.50
2018-07-25T02:45:32.240Z,15.50
2018-07-25T02:48:00.461Z,15.50
2018-07-25T02:52:56.646Z,15.40
2018-07-25T02:55:24.877Z,15.40
2018-07-25T02:57:53.077Z,15.40
2018-07-25T03:00:21.300Z,15.40
2018-07-25T03:05:24.037Z,15.40
2018-07-25T03:07:52.259Z,15.40
2018-07-25T03:10:20.455Z,15.40
2018-07-25T03:12:48.724Z,15.40
2018-07-25T03:15:16.925Z,15.40
2018-07-25T03:17:45.195Z,15.40
2018-07-25T03:20:13.525Z,15.40
2018-07-25T03:22:42.012Z,15.40
2018-07-25T03:25:10.320Z,15.40
2018-07-25T03:27:38.559Z,15.40
2018-07-25T03:30:07.114Z,15.50
2018-07-25T03:35:03.365Z,15.50
2018-07-25T03:37:31.620Z,15.50
2018-07-25T03:39:59.843Z,15.50
2018-07-25T03:42:28.035Z,15.50
2018-07-25T03:44:56.242Z,15.50
2018-07-25T03:47:24.504Z,15.50
2018-07-25T03:49:52.762Z,15.50
2018-07-25T03:52:20.948Z,15.50
2018-07-25T03:54:49.189Z,15.50
2018-07-25T03:57:17.411Z,15.50
2018-07-25T03:59:45.643Z,15.50
2018-07-25T04:02:13.849Z,15.50
2018-07-25T04:04:42.072Z,15.60
2018-07-25T04:07:10.272Z,15.60
2018-07-25T04:09:38.490Z,15.70
2018-07-25T04:12:06.736Z,15.80
2018-07-25T04:14:34.948Z,15.80
2018-07-25T04:17:03.164Z,15.80
2018-07-25T04:19:31.378Z,15.80
2018-07-25T04:21:59.605Z,15.80
2018-07-25T04:24:27.873Z,15.80
2018-07-25T04:26:56.065Z,15.80
2018-07-25T04:29:24.280Z,15.90
2018-07-25T04:31:52.487Z,15.90
2018-07-25T04:34:20.679Z,15.90
2018-07-25T04:36:49.589Z,16.00
2018-07-25T04:39:17.812Z,16.00
2018-07-25T04:41:46.668Z,16.00
2018-07-25T04:44:14.892Z,16.00
2018-07-25T04:46:43.158Z,16.00
2018-07-25T04:49:11.403Z,16.00
2018-07-25T04:51:39.685Z,16.10
2018-07-25T04:54:08.481Z,16.10
2018-07-25T04:56:36.787Z,16.20
2018-07-25T04:59:05.044Z,16.20
2018-07-25T05:01:33.261Z,16.20
2018-07-25T05:04:01.517Z,16.30
2018-07-25T05:06:29.725Z,16.30
2018-07-25T05:08:57.944Z,16.40
2018-07-25T05:11:26.152Z,16.50
2018-07-25T05:13:54.397Z,16.60
2018-07-25T05:16:22.604Z,16.60
2018-07-25T05:18:50.857Z,16.70
2018-07-25T05:21:19.072Z,16.80
2018-07-25T05:23:47.308Z,16.90
2018-07-25T05:26:15.536Z,17.00
2018-07-25T05:28:43.749Z,17.10
2018-07-25T05:31:11.973Z,17.20
2018-07-25T05:33:40.212Z,17.30
2018-07-25T05:36:08.437Z,17.40
2018-07-25T05:38:36.638Z,17.50
2018-07-25T05:41:04.894Z,17.50
2018-07-25T05:43:33.103Z,17.60
2018-07-25T05:46:01.289Z,17.70
2018-07-25T05:48:29.658Z,17.80
2018-07-25T05:50:57.865Z,17.80
2018-07-25T05:53:26.232Z,17.90
2018-07-25T05:55:54.472Z,18.00
2018-07-25T05:58:22.885Z,18.10
2018-07-25T06:00:51.135Z,18.20
2018-07-25T06:03:19.390Z,18.30
2018-07-25T06:05:47.612Z,18.40
2018-07-25T06:08:15.928Z,18.50
2018-07-25T06:10:44.156Z,18.60
2018-07-25T06:13:12.408Z,18.70
2018-07-25T06:15:40.626Z,18.80
2018-07-25T06:18:08.860Z,18.90
2018-07-25T06:20:37.138Z,19.00
2018-07-25T06:23:05.436Z,19.10
2018-07-25T06:25:33.697Z,19.30
2018-07-25T06:28:01.915Z,19.30
2018-07-25T06:30:30.130Z,19.40
2018-07-25T06:32:58.452Z,19.60
2018-07-25T06:35:27.240Z,19.70
2018-07-25T06:37:55.593Z,19.80
2018-07-25T06:40:23.919Z,19.90
2018-07-25T06:42:52.147Z,20.00
2018-07-25T06:45:20.347Z,20.10
2018-07-25T06:47:48.575Z,20.20
2018-07-25T06:50:16.785Z,20.40
2018-07-25T06:52:45.024Z,20.50
2018-07-25T06:55:13.247Z,20.60
2018-07-25T06:57:41.484Z,20.70
2018-07-25T07:00:09.680Z,20.80
2018-07-25T07:02:37.919Z,21.00
2018-07-25T07:05:06.198Z,21.20
2018-07-25T07:07:34.420Z,21.40
2018-07-25T07:10:02.644Z,21.50
2018-07-25T07:12:30.868Z,21.70
2018-07-25T07:14:59.107Z,21.90
2018-07-25T07:17:27.368Z,22.00
2018-07-25T07:19:55.544Z,22.10
2018-07-25T07:22:23.741Z,22.20
2018-07-25T07:24:51.960Z,22.40
2018-07-25T07:27:20.187Z,22.50
2018-07-25T07:29:48.389Z,22.60
2018-07-25T07:32:16.625Z,22.80
2018-07-25T07:34:44.884Z,22.80
2018-07-25T07:37:13.089Z,22.90
2018-07-25T07:39:41.280Z,23.00
2018-07-25T07:42:09.540Z,23.20
2018-07-25T07:44:37.838Z,23.30
2018-07-25T07:47:06.054Z,23.50
2018-07-25T07:49:34.254Z,23.70
2018-07-25T07:52:02.472Z,23.90
2018-07-25T07:54:30.708Z,24.10
2018-07-25T07:56:59.212Z,24.30
2018-07-25T07:59:27.464Z,24.40
2018-07-25T08:01:55.620Z,24.50
2018-07-25T08:04:23.912Z,24.60
2018-07-25T08:06:52.161Z,24.80
2018-07-25T08:09:20.404Z,24.80
2018-07-25T08:11:48.624Z,25.00
2018-07-25T08:14:16.824Z,25.10
2018-07-25T08:16:45.004Z,25.20
2018-07-25T08:19:13.217Z,25.30
2018-07-25T08:21:41.432Z,25.40
2018-07-25T08:24:09.657Z,25.50
2018-07-25T08:26:38.052Z,25.60
2018-07-25T08:29:06.287Z,25.70
2018-07-25T08:31:34.483Z,25.90
2018-07-25T08:34:02.707Z,26.00
2018-07-25T08:36:34.028Z,26.20
2018-07-25T08:39:03.452Z,26.40
2018-07-25T08:41:31.669Z,26.60
2018-07-25T08:43:59.839Z,26.70
2018-07-25T08:46:28.081Z,26.90
2018-07-25T08:48:56.275Z,27.00
2018-07-25T08:51:25.299Z,27.00
2018-07-25T08:53:53.531Z,27.10
2018-07-25T08:56:21.729Z,27.20
2018-07-25T09:01:17.932Z,27.40
2018-07-25T09:03:46.165Z,27.40
2018-07-25T09:06:14.412Z,27.50
2018-07-25T09:08:42.952Z,27.60
2018-07-25T09:11:11.196Z,27.60
2018-07-25T09:13:40.260Z,27.70
2018-07-25T09:16:08.456Z,27.70
2018-07-25T09:18:36.672Z,27.80
2018-07-25T09:21:05.084Z,27.90
2018-07-25T09:23:33.308Z,28.00
2018-07-25T09:26:01.580Z,28.20
2018-07-25T09:28:29.935Z,28.20
2018-07-25T09:30:58.136Z,28.30
2018-07-25T09:33:26.404Z,28.40
2018-07-25T09:35:54.609Z,28.40
2018-07-25T09:38:22.872Z,28.50
2018-07-25T09:40:51.103Z,28.50
2018-07-25T09:43:20.972Z,28.60
2018-07-25T09:50:45.190Z,28.70
2018-07-25T09:53:13.478Z,28.80
2018-07-25T09:55:41.628Z,28.80
2018-07-25T09:58:09.840Z,28.90
2018-07-25T10:00:43.532Z,28.90
2018-07-25T10:03:11.748Z,28.90
2018-07-25T10:05:39.951Z,29.00
2018-07-25T10:08:08.174Z,29.10
2018-07-25T10:10:36.403Z,29.10
2018-07-25T10:13:04.931Z,29.20
2018-07-25T10:15:33.200Z,29.20
2018-07-25T10:18:01.388Z,29.20
2018-07-25T10:20:29.596Z,29.30
2018-07-25T10:22:57.811Z,29.30
2018-07-25T10:25:26.060Z,29.30
2018-07-25T10:27:54.289Z,29.30
2018-07-25T10:30:22.783Z,29.40
2018-07-25T10:32:51.021Z,29.40
2018-07-25T10:35:19.181Z,29.50
2018-07-25T10:37:47.402Z,29.50
2018-07-25T10:40:15.656Z,29.60
2018-07-25T10:42:43.860Z,29.60
2018-07-25T10:45:12.085Z,29.60
2018-07-25T10:47:40.661Z,29.60
2018-07-25T10:50:09.371Z,29.60
2018-07-25T10:55:05.784Z,29.60
2018-07-25T10:57:34.743Z,29.70
2018-07-25T11:00:03.076Z,29.60
2018-07-25T11:02:31.330Z,29.70
2018-07-25T11:04:59.567Z,29.80
2018-07-25T11:07:27.890Z,29.90
2018-07-25T11:09:56.125Z,29.90
2018-07-25T11:12:24.316Z,30.00
2018-07-25T11:14:53.466Z,30.00
2018-07-25T11:17:21.660Z,30.00
2018-07-25T11:19:49.887Z,30.10
2018-07-25T11:22:18.085Z,30.20
2018-07-25T11:24:46.308Z,30.20
2018-07-25T11:27:14.518Z,30.30
2018-07-25T11:29:42.723Z,30.40
2018-07-25T11:32:10.969Z,30.40
2018-07-25T11:34:39.184Z,30.50
2018-07-25T11:37:07.408Z,30.50
2018-07-25T11:39:35.620Z,30.50
2018-07-25T11:42:03.825Z,30.50
2018-07-25T11:44:32.089Z,30.50
2018-07-25T11:47:00.282Z,30.50
2018-07-25T11:49:28.500Z,30.50
2018-07-25T11:51:56.711Z,30.50
2018-07-25T11:54:24.937Z,30.50
2018-07-25T11:56:53.142Z,30.50
2018-07-25T11:59:21.429Z,30.60
2018-07-25T12:01:49.720Z,30.60
2018-07-25T12:04:17.881Z,30.70
2018-07-25T12:06:46.090Z,30.70
2018-07-25T12:09:14.677Z,30.80
2018-07-25T12:11:46.988Z,30.80
2018-07-25T12:14:16.700Z,30.80
2018-07-25T12:16:44.945Z,30.80
2018-07-25T12:19:13.272Z,30.90
2018-07-25T12:21:41.526Z,31.00
2018-07-25T12:24:09.749Z,31.00
2018-07-25T12:26:38.007Z,31.00
2018-07-25T12:29:06.208Z,31.10
2018-07-25T12:31:34.396Z,31.20
2018-07-25T12:34:02.615Z,31.20
2018-07-25T12:36:30.792Z,31.30
2018-07-25T12:38:59.324Z,31.30
2018-07-25T12:41:27.616Z,31.30
2018-07-25T12:43:55.820Z,31.30
2018-07-25T12:46:24.045Z,31.40
2018-07-25T12:48:52.307Z,31.40
2018-07-25T12:51:20.508Z,31.40
2018-07-25T12:53:48.761Z,31.40
2018-07-25T12:56:16.956Z,31.50
2018-07-25T12:58:45.172Z,31.60
2018-07-25T13:01:13.395Z,31.70
2018-07-25T13:03:41.593Z,31.80
2018-07-25T13:06:09.840Z,31.80
2018-07-25T13:08:38.029Z,31.80
2018-07-25T13:11:06.269Z,31.80
2018-07-25T13:13:34.506Z,31.80
2018-07-25T13:16:02.702Z,31.80
2018-07-25T13:18:30.934Z,31.90
2018-07-25T13:20:59.128Z,31.90
2018-07-25T13:23:27.327Z,32.00
2018-07-25T13:25:55.789Z,32.00
2018-07-25T13:28:24.075Z,32.10
2018-07-25T13:30:52.212Z,32.20
2018-07-25T13:33:20.428Z,32.30
2018-07-25T13:38:16.749Z,32.40
2018-07-25T13:40:45.076Z,32.50
2018-07-25T13:43:13.293Z,32.50
2018-07-25T13:45:41.814Z,32.60
2018-07-25T13:48:10.797Z,32.70
2018-07-25T13:50:39.004Z,32.80
2018-07-25T13:53:07.345Z,32.80
2018-07-25T13:55:35.664Z,32.80
2018-07-25T13:58:03.888Z,32.80
2018-07-25T14:00:32.105Z,32.70
2018-07-25T14:03:00.302Z,32.50
2018-07-25T14:05:28.584Z,32.40
2018-07-25T14:07:56.775Z,32.50
2018-07-25T14:10:25.013Z,32.70
2018-07-25T14:12:53.209Z,33.10
2018-07-25T14:15:21.451Z,33.50
2018-07-25T14:17:49.676Z,33.90
2018-07-25T14:20:17.968Z,34.40
2018-07-25T14:22:46.223Z,34.50
2018-07-25T14:25:14.440Z,34.50
2018-07-25T14:27:42.665Z,34.30
2018-07-25T14:30:10.923Z,34.20
2018-07-25T14:32:39.056Z,34.00
2018-07-25T14:35:07.265Z,33.80
2018-07-25T14:37:35.481Z,33.60
2018-07-25T14:40:03.843Z,33.40
2018-07-25T14:42:31.989Z,33.20
2018-07-25T14:45:00.209Z,33.00
2018-07-25T14:47:28.564Z,32.80
2018-07-25T14:49:56.764Z,32.70
2018-07-25T14:52:25.048Z,32.60
2018-07-25T14:54:53.211Z,32.50
2018-07-25T14:57:21.420Z,32.50
2018-07-25T14:59:49.690Z,32.70
2018-07-25T15:02:17.900Z,33.20
2018-07-25T15:04:46.075Z,34.10
2018-07-25T15:07:14.280Z,34.90
2018-07-25T15:09:43.165Z,35.60
2018-07-25T15:12:11.373Z,36.30
2018-07-25T15:14:39.560Z,36.70
2018-07-25T15:17:07.756Z,37.00
2018-07-25T15:19:35.988Z,37.40
2018-07-25T15:22:04.172Z,37.60
2018-07-25T15:24:32.400Z,37.70
2018-07-25T15:27:00.920Z,37.50
2018-07-25T15:29:29.179Z,37.30
2018-07-25T15:31:57.395Z,37.00
2018-07-25T15:34:25.629Z,36.80
2018-07-25T15:36:54.173Z,36.50
2018-07-25T15:39:24.331Z,36.10
2018-07-25T15:41:53.364Z,35.80
2018-07-25T15:44:22.596Z,35.70
2018-07-25T15:46:50.854Z,35.40
2018-07-25T15:49:19.004Z,35.30
2018-07-25T15:51:47.271Z,35.20
2018-07-25T15:54:15.497Z,35.30
2018-07-25T15:56:43.731Z,35.50
2018-07-25T15:59:11.965Z,35.70
2018-07-25T16:01:40.192Z,35.90
2018-07-25T16:04:08.544Z,36.00
2018-07-25T16:06:36.891Z,36.20
2018-07-25T16:09:07.821Z,36.40
2018-07-25T16:11:36.057Z,36.90
2018-07-25T16:14:04.283Z,37.10
2018-07-25T16:16:32.512Z,37.30
2018-07-25T16:19:00.740Z,37.30
2018-07-25T16:21:28.989Z,37.30
2018-07-25T16:23:57.250Z,37.10
2018-07-25T16:26:25.477Z,36.80
2018-07-25T16:28:53.668Z,36.60
2018-07-25T16:31:21.954Z,36.50
2018-07-25T16:33:50.372Z,36.50
2018-07-25T16:36:18.636Z,36.50
2018-07-25T16:38:46.836Z,36.50
2018-07-25T16:41:15.089Z,36.60
2018-07-25T16:43:43.328Z,36.60
2018-07-25T16:46:11.568Z,36.80
2018-07-25T16:48:39.786Z,36.70
2018-07-25T16:51:08.041Z,36.30
2018-07-25T16:53:36.300Z,35.90
2018-07-25T16:56:04.798Z,35.60
2018-07-25T16:58:33.027Z,35.40
2018-07-25T17:01:01.292Z,35.20
2018-07-25T17:03:29.596Z,35.00
2018-07-25T17:08:25.816Z,34.80
2018-07-25T17:10:54.066Z,34.80
2018-07-25T17:13:22.266Z,35.20
2018-07-25T17:15:51.315Z,35.70
2018-07-25T17:18:20.748Z,36.30
2018-07-25T17:20:50.267Z,36.90
2018-07-25T17:23:18.537Z,37.00
2018-07-25T17:25:46.817Z,36.70
2018-07-25T17:28:15.012Z,36.30
2018-07-25T17:30:43.929Z,36.10
2018-07-25T17:35:40.093Z,36.70
2018-07-25T17:38:08.287Z,37.20
2018-07-25T17:40:36.575Z,37.40
2018-07-25T17:43:04.718Z,37.60
2018-07-25T17:45:32.940Z,37.70
2018-07-25T17:48:01.180Z,37.70
2018-07-25T17:50:29.384Z,37.80
2018-07-25T17:52:57.652Z,38.00
2018-07-25T17:55:25.865Z,38.10
2018-07-25T17:57:54.084Z,38.20
2018-07-25T18:00:22.296Z,38.40
2018-07-25T18:02:50.849Z,38.50
2018-07-25T18:05:19.040Z,38.70
2018-07-25T18:07:47.312Z,38.80
2018-07-25T18:10:15.540Z,38.70
2018-07-25T18:12:43.788Z,38.50
2018-07-25T18:15:12.024Z,37.80
2018-07-25T18:17:40.248Z,36.70
2018-07-25T18:20:09.244Z,35.40
2018-07-25T18:22:37.514Z,34.30
2018-07-25T18:25:06.056Z,33.40
2018-07-25T18:27:35.199Z,32.50
2018-07-25T18:32:31.452Z,31.30
2018-07-25T18:35:00.215Z,30.80
2018-07-25T18:37:28.516Z,30.30
2018-07-25T18:39:56.741Z,29.90
2018-07-25T18:42:24.952Z,29.50
2018-07-25T18:44:53.351Z,29.20
2018-07-25T18:47:21.568Z,29.00
2018-07-25T18:49:49.787Z,28.80
2018-07-25T18:52:18.011Z,28.50
2018-07-25T18:54:46.244Z,28.40
2018-07-25T18:57:14.468Z,28.20
2018-07-25T19:04:38.895Z,27.50
2018-07-25T19:07:07.140Z,27.30
2018-07-25T19:09:35.292Z,27.00
2018-07-25T19:12:03.525Z,26.80
2018-07-25T19:14:37.161Z,26.60
2018-07-25T19:17:05.378Z,26.40
2018-07-25T19:19:33.590Z,26.20
2018-07-25T19:22:03.172Z,26.00
2018-07-25T19:24:31.401Z,25.90
2018-07-25T19:26:59.694Z,25.70
2018-07-25T19:29:27.926Z,25.70
2018-07-25T19:31:56.128Z,25.50
2018-07-25T19:34:24.348Z,25.40
2018-07-25T19:36:52.609Z,25.30
2018-07-25T19:39:20.866Z,25.20
2018-07-25T19:41:49.052Z,25.10
2018-07-25T19:44:17.275Z,25.00
2018-07-25T19:46:45.474Z,25.00
2018-07-25T19:49:13.760Z,24.90
2018-07-25T19:51:42.055Z,24.80
2018-07-25T19:54:10.297Z,24.70
2018-07-25T19:56:38.547Z,24.60
2018-07-25T19:59:06.924Z,24.50
2018-07-25T20:01:35.169Z,24.40
2018-07-25T20:04:03.373Z,24.30
2018-07-25T20:06:31.601Z,24.20
2018-07-25T20:08:59.796Z,24.10
2018-07-25T20:11:28.021Z,24.10
2018-07-25T20:14:01.811Z,24.00
2018-07-25T20:16:29.976Z,23.90
2018-07-25T20:18:58.177Z,23.90
2018-07-25T20:21:26.392Z,23.80
2018-07-25T20:23:54.677Z,23.80
2018-07-25T20:26:22.844Z,23.80
2018-07-25T20:28:51.053Z,23.70
2018-07-25T20:31:19.319Z,23.70
2018-07-25T20:33:47.472Z,23.60
2018-07-25T20:36:15.686Z,23.50
2018-07-25T20:38:43.968Z,23.50
2018-07-25T20:41:12.240Z,23.40
2018-07-25T20:43:40.433Z,23.30
2018-07-25T20:46:08.753Z,23.30
2018-07-25T20:48:36.991Z,23.20
2018-07-25T20:51:05.180Z,23.20
2018-07-25T20:53:33.415Z,23.10
2018-07-25T20:56:01.625Z,23.10
2018-07-25T20:58:29.836Z,23.10
2018-07-25T21:00:58.045Z,23.00
2018-07-25T21:03:26.269Z,23.00
2018-07-25T21:05:54.475Z,23.00
2018-07-25T21:08:22.682Z,23.00
2018-07-25T21:13:18.843Z,22.90
2018-07-25T21:15:47.052Z,22.90
2018-07-25T21:18:15.257Z,22.80
2018-07-25T21:20:43.476Z,22.80
2018-07-25T21:23:11.680Z,22.80
2018-07-25T21:25:39.901Z,22.70
2018-07-25T21:28:08.104Z,22.70
2018-07-25T21:30:36.323Z,22.60
2018-07-25T21:33:04.577Z,22.60
2018-07-25T21:35:32.804Z,22.60
2018-07-25T21:38:00.996Z,22.60
2018-07-25T21:40:29.197Z,22.60
2018-07-25T21:42:57.442Z,22.50
2018-07-25T21:45:25.675Z,22.50
2018-07-25T21:47:53.881Z,22.40
2018-07-25T21:52:50.046Z,22.30
2018-07-25T21:55:18.236Z,22.30
2018-07-25T21:57:46.461Z,22.20
2018-07-25T22:00:15.996Z,22.20
2018-07-25T22:02:45.632Z,22.10
2018-07-25T22:05:14.307Z,22.10
2018-07-25T22:07:43.040Z,22.00
2018-07-25T22:10:11.237Z,22.10
2018-07-25T22:12:40.125Z,22.10
2018-07-25T22:15:09.137Z,22.00
2018-07-25T22:17:37.700Z,22.10
2018-07-25T22:20:07.648Z,22.10
2018-07-25T22:22:35.848Z,22.00
2018-07-25T22:25:04.113Z,21.90
2018-07-25T22:27:32.320Z,21.90
2018-07-25T22:30:00.527Z,21.80
2018-07-25T22:32:28.732Z,21.70
2018-07-25T22:34:56.928Z,21.60
2018-07-25T22:37:25.152Z,21.50
2018-07-25T22:39:53.332Z,21.40
2018-07-25T22:42:21.539Z,21.30
2018-07-25T22:44:49.724Z,21.20
2018-07-25T22:47:17.935Z,21.10
2018-07-25T22:49:46.176Z,21.00
2018-07-25T22:52:14.405Z,20.90
2018-07-25T22:54:42.622Z,20.80
2018-07-25T22:57:10.831Z,20.60
2018-07-25T22:59:39.052Z,20.50
2018-07-25T23:02:07.252Z,20.40
2018-07-25T23:04:35.481Z,20.30
2018-07-25T23:07:04.076Z,20.20
2018-07-25T23:09:32.260Z,20.20
2018-07-25T23:12:00.515Z,20.00
2018-07-25T23:14:28.722Z,20.00
2018-07-25T23:16:56.916Z,19.90
2018-07-25T23:19:25.146Z,19.90
2018-07-25T23:21:53.365Z,19.90
2018-07-25T23:24:21.572Z,19.70
2018-07-25T23:26:50.490Z,19.70
2018-07-25T23:29:18.985Z,19.60
2018-07-25T23:31:47.989Z,19.50
2018-07-25T23:34:16.151Z,19.50
2018-07-25T23:36:44.344Z,19.40
2018-07-25T23:39:12.564Z,19.40
2018-07-25T23:41:40.757Z,19.30
2018-07-25T23:44:09.116Z,19.30
2018-07-25T23:46:37.739Z,19.20
2018-07-25T23:49:05.969Z,19.20
2018-07-25T23:51:35.116Z,19.10
2018-07-25T23:54:03.952Z,19.10
2018-07-25T23:56:32.172Z,19.00
2018-07-25T23:59:00.344Z,18.90
